createdAt,value
2022-11-01T00:00:18.360Z,100565.28
2022-11-01T00:02:46.572Z,100562.75
2022-11-01T00:05:14.891Z,100564.28
2022-11-01T00:07:42.367Z,100553.62
2022-11-01T00:10:10.796Z,100553.53
2022-11-01T00:12:38.929Z,100554.78
2022-11-01T00:15:10.384Z,100550.69
2022-11-01T00:17:38.573Z,100552.09
2022-11-01T00:20:06.492Z,100553.16
2022-11-01T00:22:35.751Z,100547.75
2022-11-01T00:25:04.235Z,100547.03
2022-11-01T00:27:31.862Z,100555.09
2022-11-01T00:29:59.670Z,100547.41
2022-11-01T00:32:27.524Z,100536.72
2022-11-01T00:34:55.358Z,100541.78
2022-11-01T00:37:24.428Z,100545.19
2022-11-01T00:39:52.508Z,100549.50
2022-11-01T00:42:20.087Z,100547.44
2022-11-01T00:44:47.801Z,100540.22
2022-11-01T00:47:16.022Z,100544.75
2022-11-01T00:49:43.890Z,100550.47
2022-11-01T00:52:11.846Z,100542.28
2022-11-01T00:54:39.871Z,100546.44
2022-11-01T00:57:08.537Z,100534.75
2022-11-01T00:59:40.722Z,100535.84
2022-11-01T01:02:09.704Z,100520.97
2022-11-01T01:04:42.343Z,100520.50
2022-11-01T01:07:11.532Z,100524.19
2022-11-01T01:09:39.259Z,100519.44
2022-11-01T01:12:07.001Z,100523.81
2022-11-01T01:14:35.422Z,100523.88
2022-11-01T01:17:03.061Z,100513.31
2022-11-01T01:19:31.613Z,100513.59
2022-11-01T01:22:01.160Z,100505.44
2022-11-01T01:24:28.916Z,100494.47
2022-11-01T01:26:56.754Z,100507.03
2022-11-01T01:29:24.796Z,100510.00
2022-11-01T01:31:52.879Z,100509.09
2022-11-01T01:34:22.395Z,100511.91
2022-11-01T01:36:51.892Z,100513.38
2022-11-01T01:39:20.271Z,100510.28
2022-11-01T01:41:58.206Z,100497.56
2022-11-01T01:44:50.265Z,100497.69
2022-11-01T01:47:33.111Z,100494.34
2022-11-01T01:50:14.671Z,100500.72
2022-11-01T01:52:56.403Z,100513.03
2022-11-01T01:55:30.639Z,100500.50
2022-11-01T01:57:58.554Z,100488.72
2022-11-01T02:00:27.248Z,100482.78
2022-11-01T02:02:55.405Z,100493.97
2022-11-01T02:05:37.412Z,100491.81
2022-11-01T02:08:05.654Z,100499.84
2022-11-01T02:10:35.047Z,100499.13
2022-11-01T02:13:02.909Z,100486.50
2022-11-01T02:15:42.058Z,100485.19
2022-11-01T02:18:17.172Z,100480.41
2022-11-01T02:21:28.281Z,100490.16
2022-11-01T02:24:13.858Z,100490.38
2022-11-01T02:27:03.310Z,100489.78
2022-11-01T02:30:08.443Z,100487.16
2022-11-01T02:32:55.567Z,100475.66
2022-11-01T02:35:33.331Z,100481.84
2022-11-01T02:38:35.303Z,100467.53
2022-11-01T02:41:13.420Z,100462.12
2022-11-01T02:43:53.855Z,100455.94
2022-11-01T02:46:41.404Z,100456.69
2022-11-01T02:49:11.826Z,100453.25
2022-11-01T02:51:40.068Z,100456.97
2022-11-01T02:54:10.950Z,100459.19
2022-11-01T02:56:39.540Z,100456.28
2022-11-01T02:59:16.300Z,100460.44
2022-11-01T03:01:51.156Z,100475.13
2022-11-01T03:04:19.366Z,100472.56
2022-11-01T03:06:53.668Z,100473.25
2022-11-01T03:09:21.654Z,100461.91
2022-11-01T03:11:55.173Z,100468.75
2022-11-01T03:14:34.405Z,100476.34
2022-11-01T03:17:09.594Z,100478.09
2022-11-01T03:20:06.173Z,100472.03
2022-11-01T03:22:47.840Z,100467.84
2022-11-01T03:25:34.581Z,100463.22
2022-11-01T03:28:06.528Z,100467.13
2022-11-01T03:30:35.707Z,100472.25
2022-11-01T03:33:04.355Z,100472.19
2022-11-01T03:35:36.128Z,100471.19
2022-11-01T03:38:13.688Z,100471.37
2022-11-01T03:40:45.083Z,100472.84
2022-11-01T03:43:15.427Z,100468.22
2022-11-01T03:45:43.567Z,100463.13
2022-11-01T03:48:10.934Z,100470.87
2022-11-01T03:50:40.247Z,100465.16
2022-11-01T03:53:08.079Z,100467.84
2022-11-01T03:55:35.581Z,100468.06
2022-11-01T03:58:03.787Z,100462.47
2022-11-01T04:00:38.104Z,100456.50
2022-11-01T04:03:06.800Z,100451.31
2022-11-01T04:05:35.795Z,100447.50
2022-11-01T04:08:03.898Z,100447.94
2022-11-01T04:10:32.331Z,100444.69
2022-11-01T04:13:00.186Z,100439.12
2022-11-01T04:18:42.514Z,100441.53
2022-11-01T04:21:15.197Z,100435.47
2022-11-01T04:23:44.648Z,100435.38
2022-11-01T04:26:17.084Z,100434.81
2022-11-01T04:28:57.121Z,100437.78
2022-11-01T04:31:36.933Z,100438.72
2022-11-01T04:34:05.591Z,100441.59
2022-11-01T04:36:33.132Z,100443.87
2022-11-01T04:39:02.195Z,100442.38
2022-11-01T04:41:30.426Z,100436.69
2022-11-01T04:43:59.111Z,100440.31
2022-11-01T04:46:31.887Z,100439.19
2022-11-01T04:48:59.625Z,100430.69
2022-11-01T04:51:27.332Z,100436.78
2022-11-01T04:53:55.615Z,100438.13
2022-11-01T04:56:23.563Z,100439.69
2022-11-01T04:58:51.761Z,100436.41
2022-11-01T05:01:20.371Z,100448.38
2022-11-01T05:03:49.719Z,100444.69
2022-11-01T05:06:17.674Z,100449.12
2022-11-01T05:08:45.245Z,100453.09
2022-11-01T05:11:15.117Z,100445.00
2022-11-01T05:13:45.209Z,100435.38
2022-11-01T05:16:19.498Z,100441.50
2022-11-01T05:18:49.078Z,100437.84
2022-11-01T05:21:20.222Z,100442.62
2022-11-01T05:23:49.112Z,100442.22
2022-11-01T05:26:17.624Z,100437.59
2022-11-01T05:28:45.192Z,100440.09
2022-11-01T05:31:13.451Z,100422.44
2022-11-01T05:33:41.248Z,100431.84
2022-11-01T05:36:09.365Z,100427.44
2022-11-01T05:38:37.454Z,100434.28
2022-11-01T05:41:05.754Z,100429.75
2022-11-01T05:43:33.612Z,100434.00
2022-11-01T05:46:07.229Z,100441.31
2022-11-01T05:48:35.903Z,100431.91
2022-11-01T05:51:05.929Z,100442.31
2022-11-01T05:53:40.325Z,100441.91
2022-11-01T05:56:08.970Z,100439.38
2022-11-01T05:58:37.860Z,100439.34
2022-11-01T06:01:06.757Z,100438.22
2022-11-01T06:03:37.009Z,100438.25
2022-11-01T06:06:07.304Z,100447.84
2022-11-01T06:08:42.390Z,100453.50
2022-11-01T06:11:13.987Z,100444.34
2022-11-01T06:13:43.984Z,100448.72
2022-11-01T06:16:12.768Z,100460.19
2022-11-01T06:18:41.724Z,100453.00
2022-11-01T06:21:09.705Z,100452.44
2022-11-01T06:23:38.829Z,100455.59
2022-11-01T06:26:13.252Z,100446.03
2022-11-01T06:28:42.574Z,100452.19
2022-11-01T06:31:13.249Z,100448.00
2022-11-01T06:33:51.312Z,100452.44
2022-11-01T06:36:19.460Z,100447.91
2022-11-01T06:38:50.098Z,100443.16
2022-11-01T06:41:18.541Z,100450.72
2022-11-01T06:43:49.292Z,100457.50
2022-11-01T06:46:25.461Z,100461.97
2022-11-01T06:48:55.335Z,100468.34
2022-11-01T06:51:25.497Z,100458.34
2022-11-01T06:53:55.585Z,100470.09
2022-11-01T06:56:23.435Z,100470.75
2022-11-01T06:58:57.872Z,100465.25
2022-11-01T07:04:06.619Z,100462.00
2022-11-01T07:06:34.892Z,100471.25
2022-11-01T07:11:40.136Z,100470.75
2022-11-01T07:14:14.801Z,100473.94
2022-11-01T07:16:46.862Z,100471.78
2022-11-01T07:19:17.845Z,100475.88
2022-11-01T07:24:34.333Z,100482.38
2022-11-01T07:27:06.474Z,100469.00
2022-11-01T07:29:38.231Z,100463.97
2022-11-01T07:32:08.387Z,100477.37
2022-11-01T07:34:47.347Z,100479.34
2022-11-01T07:39:58.246Z,100471.94
2022-11-01T07:42:28.483Z,100479.75
2022-11-01T07:44:59.278Z,100486.69
2022-11-01T07:47:33.445Z,100479.53
2022-11-01T07:50:09.212Z,100489.78
2022-11-01T07:52:58.421Z,100485.44
2022-11-01T07:55:34.093Z,100486.62
2022-11-01T07:58:03.045Z,100489.94
2022-11-01T08:00:32.447Z,100491.53
2022-11-01T08:03:12.844Z,100484.69
2022-11-01T08:05:41.556Z,100470.47
2022-11-01T08:11:03.350Z,100470.87
2022-11-01T08:13:39.294Z,100468.69
2022-11-01T08:16:07.886Z,100467.03
2022-11-01T08:18:38.446Z,100470.81
2022-11-01T08:21:06.660Z,100466.06
2022-11-01T08:23:34.704Z,100466.47
2022-11-01T08:26:09.307Z,100470.13
2022-11-01T08:28:39.075Z,100467.28
2022-11-01T08:31:14.669Z,100474.56
2022-11-01T08:33:47.535Z,100467.28
2022-11-01T08:36:17.723Z,100478.81
2022-11-01T08:39:00.618Z,100470.34
2022-11-01T08:44:24.358Z,100475.25
2022-11-01T08:46:57.200Z,100474.41
2022-11-01T08:49:35.408Z,100469.91
2022-11-01T08:52:12.556Z,100476.72
2022-11-01T08:55:01.875Z,100471.25
2022-11-01T09:00:29.555Z,100468.31
2022-11-01T09:03:00.492Z,100467.28
2022-11-01T09:05:33.325Z,100476.28
2022-11-01T09:08:09.693Z,100470.16
2022-11-01T09:10:52.479Z,100470.59
2022-11-01T09:13:25.516Z,100469.06
2022-11-01T09:16:07.339Z,100465.47
2022-11-01T09:18:44.350Z,100462.34
2022-11-01T09:21:14.770Z,100455.69
2022-11-01T09:23:44.662Z,100463.44
2022-11-01T09:26:30.303Z,100466.34
2022-11-01T09:29:02.502Z,100459.75
2022-11-01T09:31:33.919Z,100461.16
2022-11-01T09:34:13.974Z,100456.19
2022-11-01T09:36:43.396Z,100460.63
2022-11-01T09:39:16.487Z,100467.37
2022-11-01T09:41:52.372Z,100463.94
2022-11-01T09:44:32.495Z,100454.91
2022-11-01T09:47:09.405Z,100453.25
2022-11-01T09:52:55.845Z,100460.66
2022-11-01T09:55:55.764Z,100459.03
2022-11-01T09:58:55.301Z,100464.09
2022-11-01T10:01:58.291Z,100456.69
2022-11-01T10:04:34.868Z,100455.44
2022-11-01T10:07:35.331Z,100448.88
2022-11-01T10:10:22.250Z,100453.13
2022-11-01T10:13:14.307Z,100456.97
2022-11-01T10:16:05.315Z,100448.56
2022-11-01T10:18:45.392Z,100442.84
2022-11-01T10:21:25.867Z,100438.97
2022-11-01T10:24:03.776Z,100437.97
2022-11-01T10:26:38.653Z,100441.19
2022-11-01T10:29:17.076Z,100440.06
2022-11-01T10:31:48.320Z,100433.34
2022-11-01T10:34:36.205Z,100436.75
2022-11-01T10:37:30.282Z,100438.38
2022-11-01T10:42:44.853Z,100441.69
2022-11-01T10:45:25.365Z,100431.66
2022-11-01T10:48:05.580Z,100441.97
2022-11-01T10:50:34.799Z,100436.50
2022-11-01T10:53:13.456Z,100433.56
2022-11-01T10:56:03.270Z,100446.13
2022-11-01T10:58:51.517Z,100432.22
2022-11-01T11:01:26.994Z,100427.13
2022-11-01T11:04:08.458Z,100428.78
2022-11-01T11:07:17.541Z,100435.81
2022-11-01T11:12:32.098Z,100432.91
2022-11-01T11:17:52.349Z,100433.78
2022-11-01T11:20:37.899Z,100423.06
2022-11-01T11:25:50.880Z,100416.13
2022-11-01T11:28:32.385Z,100417.38
2022-11-01T11:31:30.566Z,100419.09
2022-11-01T11:34:30.314Z,100421.22
2022-11-01T11:37:06.340Z,100413.50
2022-11-01T11:40:03.553Z,100413.37
2022-11-01T11:42:33.433Z,100411.81
2022-11-01T11:45:31.284Z,100404.91
2022-11-01T11:48:22.305Z,100407.34
2022-11-01T11:51:05.287Z,100409.69
2022-11-01T11:53:40.304Z,100405.34
2022-11-01T11:56:09.694Z,100406.84
2022-11-01T11:58:49.320Z,100409.47
2022-11-01T12:01:24.369Z,100392.81
2022-11-01T12:03:58.286Z,100398.22
2022-11-01T12:06:37.260Z,100395.78
2022-11-01T12:09:35.756Z,100387.50
2022-11-01T12:12:24.347Z,100382.50
2022-11-01T12:14:56.287Z,100391.22
2022-11-01T12:17:52.373Z,100384.62
2022-11-01T12:20:36.680Z,100378.91
2022-11-01T12:23:21.524Z,100374.81
2022-11-01T12:25:51.642Z,100369.63
2022-11-01T12:28:45.296Z,100378.91
2022-11-01T12:31:22.464Z,100378.19
2022-11-01T12:37:05.542Z,100365.13
2022-11-01T12:39:44.076Z,100365.47
2022-11-01T12:42:30.192Z,100368.12
2022-11-01T12:45:07.480Z,100357.38
2022-11-01T12:47:44.533Z,100358.31
2022-11-01T12:50:25.001Z,100351.97
2022-11-01T12:55:49.365Z,100352.66
2022-11-01T12:58:25.476Z,100347.34
2022-11-01T13:01:16.619Z,100340.97
2022-11-01T13:04:00.285Z,100346.28
2022-11-01T13:06:44.558Z,100345.94
2022-11-01T13:09:46.331Z,100345.28
2022-11-01T13:12:34.633Z,100349.16
2022-11-01T13:15:43.475Z,100349.56
2022-11-01T13:18:27.482Z,100343.38
2022-11-01T13:21:12.305Z,100345.72
2022-11-01T13:26:30.758Z,100339.97
2022-11-01T13:29:40.061Z,100338.13
2022-11-01T13:32:32.904Z,100330.06
2022-11-01T13:35:23.555Z,100338.13
2022-11-01T13:37:58.542Z,100341.13
2022-11-01T13:40:33.294Z,100338.22
2022-11-01T13:43:18.378Z,100336.03
2022-11-01T13:46:16.329Z,100333.75
2022-11-01T13:49:04.736Z,100330.78
2022-11-01T13:52:02.421Z,100318.91
2022-11-01T13:54:48.196Z,100329.66
2022-11-01T13:57:17.916Z,100337.66
2022-11-01T13:59:57.293Z,100335.59
2022-11-01T14:02:35.387Z,100338.84
2022-11-01T14:07:50.944Z,100330.31
2022-11-01T14:10:20.262Z,100336.09
2022-11-01T14:13:10.690Z,100335.13
2022-11-01T14:16:00.571Z,100334.63
2022-11-01T14:18:30.024Z,100337.03
2022-11-01T14:21:00.509Z,100331.16
2022-11-01T14:23:30.054Z,100334.63
2022-11-01T14:27:08.047Z,100331.19
2022-11-01T14:29:37.957Z,100333.53
2022-11-01T14:32:11.672Z,100331.72
2022-11-01T14:34:47.259Z,100329.22
2022-11-01T14:37:21.312Z,100324.00
2022-11-01T14:40:01.818Z,100327.59
2022-11-01T14:42:40.136Z,100320.03
2022-11-01T14:45:24.565Z,100327.84
2022-11-01T14:47:57.675Z,100322.69
2022-11-01T14:50:43.169Z,100333.44
2022-11-01T14:53:22.640Z,100331.34
2022-11-01T14:55:53.518Z,100329.09
2022-11-01T14:58:24.283Z,100338.25
2022-11-01T15:00:56.648Z,100337.03
2022-11-01T15:03:29.376Z,100341.00
2022-11-01T15:06:08.245Z,100345.47
2022-11-01T15:08:48.186Z,100342.84
2022-11-01T15:11:20.641Z,100349.41
2022-11-01T15:13:49.329Z,100345.13
2022-11-01T15:16:23.190Z,100349.19
2022-11-01T15:19:01.478Z,100354.63
2022-11-01T15:21:46.705Z,100352.41
2022-11-01T15:24:30.344Z,100358.69
2022-11-01T15:27:18.288Z,100361.59
2022-11-01T15:29:59.313Z,100362.81
2022-11-01T15:35:24.198Z,100358.19
2022-11-01T15:37:55.403Z,100359.50
2022-11-01T15:40:37.061Z,100350.59
2022-11-01T15:43:08.399Z,100357.31
2022-11-01T15:48:22.356Z,100354.31
2022-11-01T15:51:06.228Z,100352.84
2022-11-01T15:53:37.193Z,100352.31
2022-11-01T15:56:12.266Z,100354.72
2022-11-01T15:58:44.835Z,100357.47
2022-11-01T16:01:23.597Z,100360.03
2022-11-01T16:07:02.302Z,100365.13
2022-11-01T16:09:53.284Z,100365.13
2022-11-01T16:12:35.546Z,100361.59
2022-11-01T16:15:23.422Z,100368.12
2022-11-01T16:18:00.512Z,100362.09
2022-11-01T16:20:41.330Z,100354.53
2022-11-01T16:23:32.292Z,100357.12
2022-11-01T16:26:13.426Z,100353.62
2022-11-01T16:28:46.542Z,100351.22
2022-11-01T16:33:59.931Z,100363.13
2022-11-01T16:36:45.429Z,100358.59
2022-11-01T16:39:32.342Z,100355.22
2022-11-01T16:42:36.246Z,100356.78
2022-11-01T16:45:05.950Z,100357.56
2022-11-01T16:47:44.259Z,100352.91
2022-11-01T16:50:26.207Z,100357.97
2022-11-01T16:53:10.157Z,100367.28
2022-11-01T16:55:45.354Z,100362.72
2022-11-01T16:58:23.928Z,100357.56
2022-11-01T17:01:00.599Z,100370.62
2022-11-01T17:03:35.374Z,100376.37
2022-11-01T17:06:09.366Z,100378.75
2022-11-01T17:08:41.440Z,100376.72
2022-11-01T17:11:15.395Z,100379.53
2022-11-01T17:13:49.152Z,100378.50
2022-11-01T17:16:28.702Z,100384.09
2022-11-01T17:19:09.371Z,100382.97
2022-11-01T17:21:48.322Z,100382.19
2022-11-01T17:24:25.044Z,100379.47
2022-11-01T17:27:03.305Z,100379.28
2022-11-01T17:32:20.262Z,100382.38
2022-11-01T17:34:53.793Z,100379.97
2022-11-01T17:40:20.789Z,100378.22
2022-11-01T17:42:53.543Z,100379.78
2022-11-01T17:45:23.437Z,100377.91
2022-11-01T17:51:00.969Z,100376.03
2022-11-01T17:53:41.634Z,100378.94
2022-11-01T17:56:13.373Z,100375.84
2022-11-01T17:58:41.841Z,100376.41
2022-11-01T18:03:45.442Z,100371.44
2022-11-01T18:06:41.296Z,100365.97
2022-11-01T18:15:12.308Z,100366.03
2022-11-01T18:17:53.906Z,100370.03
2022-11-01T18:20:34.290Z,100366.06
2022-11-01T18:23:15.241Z,100365.50
2022-11-01T18:25:48.606Z,100360.41
2022-11-01T18:28:27.282Z,100361.19
2022-11-01T18:31:27.330Z,100364.25
2022-11-01T18:34:04.546Z,100368.63
2022-11-01T18:36:53.231Z,100364.50
2022-11-01T18:42:28.304Z,100368.44
2022-11-01T18:45:01.756Z,100371.16
2022-11-01T18:47:41.209Z,100363.47
2022-11-01T18:50:36.047Z,100376.66
2022-11-01T18:53:17.337Z,100371.16
2022-11-01T18:55:50.562Z,100361.41
2022-11-01T18:58:31.280Z,100368.41
2022-11-01T19:01:19.470Z,100361.59
2022-11-01T19:03:58.040Z,100363.06
2022-11-01T19:06:27.646Z,100361.09
2022-11-01T19:09:03.335Z,100366.06
2022-11-01T19:11:38.593Z,100376.31
2022-11-01T19:14:24.328Z,100366.06
2022-11-01T19:16:54.511Z,100378.19
2022-11-01T19:19:23.125Z,100369.13
2022-11-01T19:21:53.341Z,100367.62
2022-11-01T19:24:36.331Z,100359.53
2022-11-01T19:27:22.294Z,100353.31
2022-11-01T19:35:19.408Z,100352.16
2022-11-01T19:37:58.492Z,100353.75
2022-11-01T19:40:32.027Z,100357.56
2022-11-01T19:43:17.399Z,100350.62
2022-11-01T19:46:05.271Z,100356.91
2022-11-01T19:48:42.698Z,100361.09
2022-11-01T19:54:00.040Z,100374.81
2022-11-01T19:56:30.708Z,100379.03
2022-11-01T19:59:11.352Z,100377.75
2022-11-01T20:01:44.487Z,100388.84
2022-11-01T20:04:26.042Z,100378.72
2022-11-01T20:07:20.752Z,100382.53
2022-11-01T20:09:55.975Z,100388.97
2022-11-01T20:13:10.406Z,100394.84
2022-11-01T20:15:41.577Z,100392.66
2022-11-01T20:18:12.286Z,100389.41
2022-11-01T20:20:46.749Z,100381.78
2022-11-01T20:23:26.661Z,100383.03
2022-11-01T20:26:02.343Z,100388.91
2022-11-01T20:28:38.205Z,100393.13
2022-11-01T20:31:06.688Z,100388.63
2022-11-01T20:33:34.737Z,100395.19
2022-11-01T20:36:10.828Z,100390.53
2022-11-01T20:38:40.296Z,100397.75
2022-11-01T20:41:16.348Z,100400.22
2022-11-01T20:43:45.913Z,100399.84
2022-11-01T20:46:14.943Z,100407.28
2022-11-01T20:48:45.569Z,100389.94
2022-11-01T20:51:15.078Z,100396.34
2022-11-01T20:53:49.393Z,100383.75
2022-11-01T20:56:23.337Z,100369.25
2022-11-01T21:04:19.504Z,100381.44
2022-11-01T21:06:49.470Z,100380.44
2022-11-01T21:09:32.227Z,100387.81
2022-11-01T21:12:13.344Z,100388.16
2022-11-01T21:14:42.710Z,100386.09
2022-11-01T21:17:18.388Z,100383.88
2022-11-01T21:19:56.342Z,100388.25
2022-11-01T21:22:25.016Z,100381.84
2022-11-01T21:24:54.270Z,100390.00
2022-11-01T21:27:26.940Z,100381.38
2022-11-01T21:30:16.322Z,100374.81
2022-11-01T21:32:45.557Z,100380.25
2022-11-01T21:35:21.126Z,100375.56
2022-11-01T21:37:54.831Z,100377.97
2022-11-01T21:40:29.240Z,100378.78
2022-11-01T21:43:01.321Z,100380.63
2022-11-01T21:45:35.112Z,100377.41
2022-11-01T21:48:26.833Z,100372.41
2022-11-01T21:50:57.714Z,100371.09
2022-11-01T21:53:33.240Z,100373.84
2022-11-01T21:56:04.713Z,100362.31
2022-11-01T21:58:36.451Z,100367.94
2022-11-01T22:01:06.273Z,100368.91
2022-11-01T22:03:36.461Z,100380.88
2022-11-01T22:06:10.625Z,100375.16
2022-11-01T22:08:38.947Z,100377.09
2022-11-01T22:11:06.853Z,100369.03
2022-11-01T22:13:34.829Z,100375.09
2022-11-01T22:16:04.346Z,100383.97
2022-11-01T22:18:34.300Z,100384.88
2022-11-01T22:21:03.520Z,100381.47
2022-11-01T22:23:31.590Z,100379.59
2022-11-01T22:26:02.350Z,100373.38
2022-11-01T22:28:33.467Z,100380.47
2022-11-01T22:31:02.982Z,100376.84
2022-11-01T22:33:32.006Z,100382.63
2022-11-01T22:35:59.976Z,100381.56
2022-11-01T22:38:37.862Z,100377.41
2022-11-01T22:41:12.852Z,100376.37
2022-11-01T22:43:46.482Z,100381.09
2022-11-01T22:46:21.985Z,100384.88
2022-11-01T22:48:49.737Z,100388.31
2022-11-01T22:51:38.398Z,100386.81
2022-11-01T22:54:42.246Z,100376.75
2022-11-01T22:57:15.661Z,100376.06
2022-11-01T22:59:46.664Z,100372.59
2022-11-01T23:02:31.632Z,100371.50
2022-11-01T23:05:08.724Z,100377.66
2022-11-01T23:07:43.039Z,100369.94
2022-11-01T23:10:38.250Z,100374.03
2022-11-01T23:13:35.634Z,100378.19
2022-11-01T23:16:37.438Z,100381.78
2022-11-01T23:19:09.379Z,100384.94
2022-11-01T23:21:37.161Z,100384.28
2022-11-01T23:24:07.916Z,100381.50
2022-11-01T23:26:37.040Z,100390.25
2022-11-01T23:29:06.182Z,100385.78
2022-11-01T23:31:37.753Z,100398.16
2022-11-01T23:34:06.102Z,100407.28
2022-11-01T23:36:37.660Z,100415.03
2022-11-01T23:39:12.467Z,100422.16
2022-11-01T23:41:51.091Z,100408.84
2022-11-01T23:44:36.026Z,100417.69
2022-11-01T23:47:09.826Z,100425.56
2022-11-01T23:49:37.924Z,100418.31
2022-11-01T23:52:28.209Z,100412.28
2022-11-01T23:54:56.492Z,100417.06
2022-11-01T23:57:27.826Z,100417.81
2022-11-01T23:59:56.257Z,100408.53
